Puertollano, Spain
Current Conditions -  °F | °C
As of 8:00 PM on Saturday 22 Nov 2014 (Local Time) from LEAO Reporting Station
Clear Clear  
Wind Chill: 59°   Ceiling: Unl
Heat Index: 59°   Visibility: 6mi
Dew Point: 54°   Wind: 7mph
Humidity: 82%   Direction: 80°E
Pressure: 29.83"   Gusts: NA
Location:  38.69°N, 4.11°W
Report Text: LEAO 221900Z 08006KT 050V110 CAVOK 15/12 Q1010
Loading
Personal Weather Stations






























Interactive Weather Map New forecast layout! Learn more

10-Day Weather Forecast

Advertisements
Track Severe Weather on mobile